To NAV CANADA Home Page Login to a new session Search on AWWS site Feedback and Comments Disclaimer Vers la page française équivalente Tips FAQ What's new on the site To the Forecasts and Observations / NOTAM section To "File a Flight Plan" website Publications and other links Update of the User's profile FIC Telephone Numbers My Weather Data Folder Route Weather Data Regional Weather Data Local Weather Data To the Forecasts and Observations / NOTAM section
Request Generated 08/03/2015 at 17:07:48 UTC . Weather information available at that time is displayed.

METAR/TAF

STEPHENVILLE/NL    

METAR CYJT 031600Z 23009KT 15SM FEW025 BKN180 19/16 A2992 RMK SC1CI6
SLP133 DENSITY ALT 600FT=
METAR CYJT 031500Z 25007KT 15SM FEW012 BKN180 19/16 A2990 RMK SC1CI6
SLP127 DENSITY ALT 500FT=
METAR CYJT 031400Z 25007KT 15SM FEW015 BKN180 19/16 A2990 RMK SC1CI5
SLP126 DENSITY ALT 500FT=

TAF CYJT 031138Z 0312/0412 24005KT P6SM SCT015 TEMPO 0312/0314 BKN015
FM031400 24010KT P6SM FEW020
FM032000 24005KT P6SM SKC
BECMG 0401/0403 VRB03KT
RMK NXT FCST BY 031800Z=
Your time UTC time
Weather data provided by Environment Canada and NAV CANADA